Time;durP1;ratioP1;P1;durP2;ratioP2;P2;SDS_P1;SDS_P2;PMS_P1;PMS_P2;Temp;Humidity;BMP_temperature;BMP_pressure;BME280_temperature;BME280_humidity;BME280_pressure;Samples;Min_cycle;Max_cycle;Signal;HPM_P1;HPM_P2
2021/07/28 00:02:01;;;;;;;6.50;2.25;;;24.40;77.00;;;;;;5076397;28;20028;-76
2021/07/28 00:04:26;;;;;;;9.55;2.70;;;24.40;77.10;;;;;;5076095;28;20042;-76
2021/07/28 00:06:52;;;;;;;4.88;2.78;;;24.40;77.60;;;;;;5076201;28;20385;-75
2021/07/28 00:09:18;;;;;;;6.07;2.47;;;24.30;78.50;;;;;;5076205;28;20020;-75
2021/07/28 00:11:47;;;;;;;6.35;2.58;;;24.40;78.30;;;;;;5076167;28;20029;-75
2021/07/28 00:14:13;;;;;;;7.60;2.50;;;24.30;78.80;;;;;;5075938;28;20024;-75
2021/07/28 00:16:39;;;;;;;5.53;2.63;;;24.30;79.20;;;;;;5075930;28;20534;-75
2021/07/28 00:19:09;;;;;;;6.70;2.70;;;24.30;77.50;;;;;;5075828;28;20029;-75
2021/07/28 00:24:19;;;;;;;8.50;3.17;;;24.30;79.60;;;;;;5076002;28;20146;-75
2021/07/28 00:26:45;;;;;;;7.95;3.40;;;24.30;81.10;;;;;;5075456;28;20157;-75
2021/07/28 00:29:10;;;;;;;8.75;3.30;;;24.30;81.20;;;;;;5075691;28;20028;-75
2021/07/28 00:31:36;;;;;;;8.90;3.38;;;24.30;81.90;;;;;;5075538;28;20027;-75
2021/07/28 00:34:02;;;;;;;7.72;3.35;;;24.20;81.40;;;;;;5075223;28;20039;-73
2021/07/28 00:36:27;;;;;;;10.88;3.88;;;24.30;81.90;;;;;;5075588;28;20016;-75
2021/07/28 00:38:53;;;;;;;10.00;3.80;;;24.20;82.50;;;;;;5075653;28;20471;-75
2021/07/28 00:41:19;;;;;;;9.43;4.07;;;24.20;82.80;;;;;;5075356;28;20040;-75
2021/07/28 00:43:44;;;;;;;8.30;3.55;;;24.20;82.80;;;;;;5075769;28;20021;-75
2021/07/28 00:46:10;;;;;;;9.63;4.35;;;24.20;82.90;;;;;;5075256;28;20032;-75
2021/07/28 00:48:36;;;;;;;8.93;3.92;;;24.10;83.50;;;;;;5073832;28;20374;-76
2021/07/28 00:51:03;;;;;;;12.63;4.25;;;24.10;84.60;;;;;;5075291;28;20532;-75
2021/07/28 00:53:29;;;;;;;12.00;3.80;;;24.10;85.30;;;;;;5075358;28;20032;-74
2021/07/28 00:55:56;;;;;;;9.15;4.10;;;;;;;;;;5075356;28;20495;-74
2021/07/28 00:58:23;;;;;;;9.25;4.05;;;;;;;;;;5073395;28;20453;-75
2021/07/28 01:00:48;;;;;;;18.42;4.10;;;23.90;79.50;;;;;;5072391;28;20477;-76
2021/07/28 01:03:14;;;;;;;14.85;4.60;;;23.90;80.60;;;;;;5072444;28;20028;-74
2021/07/28 01:05:41;;;;;;;8.32;3.72;;;;;;;;;;5074298;28;20021;-75
2021/07/28 01:08:07;;;;;;;11.30;4.10;;;;;;;;;;5074941;28;20025;-76
2021/07/28 01:10:34;;;;;;;8.20;4.15;;;;;;;;;;5075050;28;20016;-75
2021/07/28 01:13:03;;;;;;;11.27;4.00;;;;;;;;;;5074673;28;20037;-74
2021/07/28 01:18:01;;;;;;;10.93;4.68;;;;;;;;;;5075002;28;20139;-76
2021/07/28 01:20:38;;;;;;;6.50;3.70;;;;;;;;;;5074302;28;20044;-75
2021/07/28 01:23:05;;;;;;;7.65;3.83;;;;;;;;;;5074726;28;20554;-75
2021/07/28 01:25:33;;;;;;;13.18;4.60;;;;;;;;;;5074409;28;20032;-75
2021/07/28 01:28:01;;;;;;;9.93;4.45;;;23.60;88.70;;;;;;5073886;28;20132;-75
2021/07/28 01:30:27;;;;;;;11.32;4.38;;;23.60;70.60;;;;;;5074219;28;20038;-75
2021/07/28 01:32:53;;;;;;;10.23;3.63;;;23.50;67.60;;;;;;5074547;28;20365;-74
2021/07/28 01:35:20;;;;;;;9.88;3.90;;;23.40;68.10;;;;;;5074186;28;20031;-75
2021/07/28 01:37:46;;;;;;;14.50;4.45;;;23.40;68.20;;;;;;5074321;28;20032;-75
2021/07/28 01:40:13;;;;;;;8.20;4.88;;;23.40;68.40;;;;;;5074337;28;20476;-75
2021/07/28 01:42:41;;;;;;;11.98;4.40;;;23.40;68.50;;;;;;5073980;28;20055;-75
2021/07/28 01:45:07;;;;;;;8.90;3.17;;;23.40;68.40;;;;;;5074027;28;20020;-75
2021/07/28 01:47:33;;;;;;;9.30;3.60;;;23.40;68.10;;;;;;5073646;28;20063;-75
2021/07/28 01:49:58;;;;;;;8.07;3.28;;;23.40;67.60;;;;;;5074222;28;20048;-75
2021/07/28 01:52:24;;;;;;;9.40;2.90;;;23.40;67.30;;;;;;5073748;28;20024;-74
2021/07/28 01:54:49;;;;;;;6.82;2.70;;;23.30;65.60;;;;;;5073492;28;20081;-74
2021/07/28 01:57:15;;;;;;;9.32;2.92;;;23.30;66.10;;;;;;5074035;28;20469;-75
2021/07/28 01:59:41;;;;;;;8.93;2.72;;;23.30;65.90;;;;;;5073592;28;20040;-74
2021/07/28 02:02:07;;;;;;;8.55;3.90;;;;;;;;;;5074014;28;20106;-74
2021/07/28 02:04:33;;;;;;;8.80;3.22;;;23.30;65.00;;;;;;5073674;28;20033;-75
2021/07/28 02:06:58;;;;;;;7.55;2.78;;;23.30;65.60;;;;;;5073802;28;20050;-75
2021/07/28 02:09:24;;;;;;;6.38;3.45;;;23.30;65.70;;;;;;5073856;28;20044;-74
2021/07/28 02:11:50;;;;;;;5.38;2.22;;;23.30;65.80;;;;;;5073698;28;20025;-75
2021/07/28 02:14:15;;;;;;;8.07;2.78;;;23.30;66.00;;;;;;5073697;28;20071;-75
2021/07/28 02:16:41;;;;;;;8.23;3.55;;;23.30;66.00;;;;;;5073465;28;20031;-75
2021/07/28 02:19:07;;;;;;;7.53;3.83;;;23.30;65.70;;;;;;5073537;28;20031;-74
2021/07/28 02:21:33;;;;;;;8.75;4.10;;;23.20;66.50;;;;;;5073805;28;20029;-75
2021/07/28 02:24:00;;;;;;;8.90;3.70;;;23.20;67.30;;;;;;5073268;28;20025;-76
2021/07/28 02:26:25;;;;;;;9.65;4.05;;;23.20;67.80;;;;;;5073106;28;20040;-75
2021/07/28 02:28:54;;;;;;;8.23;4.32;;;23.20;68.30;;;;;;5073351;28;20354;-75
2021/07/28 02:31:19;;;;;;;12.35;3.85;;;23.10;68.60;;;;;;5073162;28;20024;-75
2021/07/28 02:33:45;;;;;;;10.68;4.03;;;23.00;69.10;;;;;;5073085;28;20108;-75
2021/07/28 02:36:11;;;;;;;11.68;4.07;;;23.00;69.30;;;;;;5073374;28;20028;-76
2021/07/28 02:38:36;;;;;;;12.80;4.28;;;23.00;69.50;;;;;;5073135;28;20020;-75
2021/07/28 02:41:02;;;;;;;11.32;4.40;;;22.90;69.60;;;;;;5073052;28;20036;-76
2021/07/28 02:43:28;;;;;;;8.00;4.30;;;23.00;69.90;;;;;;5073301;28;20031;-75
2021/07/28 02:45:54;;;;;;;15.43;5.15;;;22.90;69.90;;;;;;5073218;28;20024;-75
2021/07/28 02:48:20;;;;;;;12.20;4.00;;;22.90;70.00;;;;;;5073317;28;20029;-75
2021/07/28 02:50:45;;;;;;;13.52;4.50;;;22.90;70.10;;;;;;5072965;28;20024;-75
2021/07/28 02:53:11;;;;;;;11.90;4.28;;;22.90;70.30;;;;;;5072829;28;20028;-75
2021/07/28 02:55:37;;;;;;;11.57;4.47;;;22.80;70.20;;;;;;5072891;28;20013;-75
2021/07/28 02:58:02;;;;;;;9.35;4.40;;;22.90;70.40;;;;;;5073014;28;20499;-76
2021/07/28 03:00:28;;;;;;;10.77;4.35;;;22.80;70.40;;;;;;5071854;28;20025;-76
2021/07/28 03:02:54;;;;;;;11.95;4.70;;;22.80;70.50;;;;;;5073030;28;20366;-75
2021/07/28 03:05:20;;;;;;;13.63;4.18;;;22.80;70.70;;;;;;5072873;28;20476;-74
2021/07/28 03:07:45;;;;;;;12.18;3.90;;;22.80;70.70;;;;;;5073286;28;20025;-74
2021/07/28 03:10:11;;;;;;;8.55;3.97;;;22.80;70.70;;;;;;5072735;28;20056;-75
2021/07/28 03:12:37;;;;;;;14.02;4.03;;;22.80;70.70;;;;;;5072978;28;20107;-75
2021/07/28 03:15:04;;;;;;;8.95;3.83;;;22.70;70.70;;;;;;5072982;28;20079;-75
2021/07/28 03:17:30;;;;;;;11.25;4.43;;;22.70;70.90;;;;;;5072921;28;20049;-75
2021/07/28 03:19:55;;;;;;;10.82;4.32;;;22.70;70.80;;;;;;5072872;28;20032;-75
2021/07/28 03:22:21;;;;;;;16.63;4.60;;;22.70;70.90;;;;;;5072649;28;20059;-75
2021/07/28 03:24:47;;;;;;;10.40;4.57;;;22.70;70.90;;;;;;5072578;28;20441;-75
2021/07/28 03:27:12;;;;;;;9.60;4.95;;;22.70;70.90;;;;;;5072436;28;20053;-75
2021/07/28 03:29:38;;;;;;;10.95;5.13;;;22.70;71.40;;;;;;5072753;28;20100;-75
2021/07/28 03:32:04;;;;;;;9.10;4.57;;;22.60;70.70;;;;;;5072669;28;20032;-76
2021/07/28 03:34:30;;;;;;;7.15;3.70;;;22.70;70.80;;;;;;5072611;28;20047;-75
2021/07/28 03:36:56;;;;;;;10.13;3.72;;;22.70;70.80;;;;;;5072761;28;20108;-75
2021/07/28 03:39:21;;;;;;;11.23;3.95;;;22.60;70.50;;;;;;5072817;28;20469;-74
2021/07/28 03:41:47;;;;;;;9.23;3.63;;;22.60;69.60;;;;;;5072430;28;20028;-75
2021/07/28 03:44:13;;;;;;;8.63;3.28;;;22.60;69.10;;;;;;5072287;28;20491;-75
2021/07/28 03:46:38;;;;;;;8.75;3.20;;;22.60;68.60;;;;;;5072740;28;20025;-74
2021/07/28 03:49:04;;;;;;;7.57;3.10;;;;;;;;;;5072682;28;20056;-75
2021/07/28 03:51:30;;;;;;;8.55;3.33;;;22.60;68.00;;;;;;5072512;28;20361;-76
2021/07/28 03:53:56;;;;;;;10.43;3.92;;;22.60;68.50;;;;;;5072293;28;20036;-76
2021/07/28 03:56:24;;;;;;;9.45;4.35;;;22.60;68.50;;;;;;5072377;28;20170;-75
2021/07/28 03:58:53;;;;;;;9.85;4.40;;;22.60;68.80;;;;;;5072830;28;20036;-76
2021/07/28 04:01:20;;;;;;;11.90;4.70;;;22.60;69.00;;;;;;5072499;28;20040;-75
2021/07/28 04:03:46;;;;;;;7.70;3.63;;;22.60;68.90;;;;;;5072447;28;20470;-75
2021/07/28 04:06:12;;;;;;;10.75;4.18;;;22.60;69.00;;;;;;5072047;28;20135;-75
2021/07/28 04:08:38;;;;;;;10.52;4.30;;;22.60;68.90;;;;;;5072091;28;20103;-75
2021/07/28 04:11:03;;;;;;;12.77;4.05;;;22.60;68.90;;;;;;5073053;28;20020;-75
2021/07/28 04:13:29;;;;;;;7.47;4.03;;;22.50;69.00;;;;;;5076149;28;20040;-75
2021/07/28 04:15:54;;;;;;;11.73;4.90;;;22.50;69.30;;;;;;5075927;28;20381;-75
2021/07/28 04:18:20;;;;;;;14.23;4.55;;;22.50;69.10;;;;;;5075744;28;20029;-75
2021/07/28 04:20:46;;;;;;;10.07;4.40;;;22.50;70.10;;;;;;5075696;28;20036;-75
2021/07/28 04:23:11;;;;;;;11.50;4.35;;;22.50;70.00;;;;;;5076042;28;20457;-75
2021/07/28 04:25:37;;;;;;;11.23;4.63;;;22.50;70.20;;;;;;5075534;28;20033;-75
2021/07/28 04:28:03;;;;;;;11.30;4.63;;;22.50;70.40;;;;;;5075734;28;20469;-75
2021/07/28 04:30:29;;;;;;;12.20;4.93;;;22.50;70.50;;;;;;5075804;28;20021;-75
2021/07/28 04:32:54;;;;;;;13.07;4.97;;;22.40;70.70;;;;;;5075653;28;20048;-75
2021/07/28 04:35:20;;;;;;;15.13;4.82;;;22.50;70.80;;;;;;5075374;28;20022;-75
2021/07/28 04:37:46;;;;;;;8.68;4.50;;;22.50;70.90;;;;;;5075427;28;20103;-75
2021/07/28 04:40:12;;;;;;;10.20;3.97;;;22.50;70.90;;;;;;5075333;28;20040;-75
2021/07/28 04:42:38;;;;;;;10.93;4.63;;;22.50;70.90;;;;;;5075225;28;20063;-75
2021/07/28 04:45:06;;;;;;;10.07;4.32;;;22.40;70.70;;;;;;5075269;28;20048;-75
2021/07/28 04:47:31;;;;;;;9.00;4.20;;;22.50;70.90;;;;;;5075023;28;20508;-75
2021/07/28 04:49:57;;;;;;;9.35;4.10;;;22.50;70.70;;;;;;5073823;28;20024;-75
2021/07/28 04:52:24;;;;;;;10.40;4.05;;;22.50;70.50;;;;;;5075203;28;20032;-76
2021/07/28 04:54:51;;;;;;;8.77;4.10;;;22.50;70.30;;;;;;5074998;28;20028;-76
2021/07/28 04:57:17;;;;;;;14.55;4.85;;;22.50;70.10;;;;;;5075345;28;20024;-69
2021/07/28 04:59:42;;;;;;;13.13;5.22;;;22.50;70.00;;;;;;5075092;28;20036;-69
2021/07/28 05:02:08;;;;;;;11.07;4.25;;;22.50;70.00;;;;;;5074919;28;20500;-70
2021/07/28 05:04:34;;;;;;;11.00;4.40;;;22.60;69.80;;;;;;5074655;28;20027;-69
2021/07/28 05:06:59;;;;;;;11.13;3.63;;;22.60;69.70;;;;;;5074826;28;20042;-70
2021/07/28 05:09:25;;;;;;;9.57;4.15;;;22.50;69.70;;;;;;5074774;28;20358;-69
2021/07/28 05:11:51;;;;;;;12.43;4.20;;;22.60;69.60;;;;;;5074753;28;20114;-69
2021/07/28 05:14:16;;;;;;;7.95;3.65;;;22.60;69.60;;;;;;5074638;28;20032;-69
2021/07/28 05:16:42;;;;;;;9.20;3.90;;;22.60;69.30;;;;;;5074799;28;20016;-70
2021/07/28 05:19:08;;;;;;;10.52;4.15;;;22.70;69.10;;;;;;5074725;28;20035;-69
2021/07/28 05:21:33;;;;;;;9.50;3.90;;;22.70;68.90;;;;;;5074503;28;20468;-74
2021/07/28 05:23:59;;;;;;;11.43;4.25;;;22.70;68.70;;;;;;5073611;28;20024;-73
2021/07/28 05:26:25;;;;;;;8.60;3.58;;;22.80;68.70;;;;;;5074404;28;20055;-73
2021/07/28 05:28:50;;;;;;;11.88;3.55;;;22.80;68.50;;;;;;5074462;28;20468;-73
2021/07/28 05:31:16;;;;;;;9.57;4.00;;;22.80;68.20;;;;;;5074107;28;20031;-73
2021/07/28 05:33:45;;;;;;;10.32;3.67;;;22.80;68.10;;;;;;5074164;28;20029;-73
2021/07/28 05:36:11;;;;;;;12.60;3.97;;;22.90;68.20;;;;;;5074166;28;20476;-74
2021/07/28 05:38:36;;;;;;;6.90;3.17;;;22.90;67.90;;;;;;5073810;28;20029;-73
2021/07/28 05:41:03;;;;;;;14.60;4.50;;;22.90;67.80;;;;;;5073682;28;20029;-74
2021/07/28 05:43:29;;;;;;;12.35;3.90;;;23.00;67.70;;;;;;5074370;28;20035;-74
2021/07/28 05:45:54;;;;;;;13.05;3.90;;;23.00;67.70;;;;;;5074039;28;20464;-74
2021/07/28 05:48:20;;;;;;;9.82;4.00;;;23.00;67.70;;;;;;5074239;28;20028;-74
2021/07/28 05:50:46;;;;;;;8.00;3.80;;;23.10;67.80;;;;;;5073776;28;20151;-73
2021/07/28 05:53:12;;;;;;;10.60;4.20;;;23.10;67.70;;;;;;5073605;28;20021;-74
2021/07/28 05:55:37;;;;;;;10.57;4.13;;;23.10;67.70;;;;;;5073923;28;20070;-75
2021/07/28 05:58:03;;;;;;;9.45;4.20;;;23.10;67.50;;;;;;5074044;28;20024;-74
2021/07/28 06:00:29;;;;;;;11.57;3.80;;;23.20;67.20;;;;;;5073957;28;20032;-75
2021/07/28 06:02:55;;;;;;;14.85;4.85;;;23.20;67.00;;;;;;5073706;28;20055;-74
2021/07/28 06:05:21;;;;;;;11.30;3.78;;;23.30;67.10;;;;;;5073602;28;20500;-75
2021/07/28 06:07:46;;;;;;;8.50;3.88;;;23.30;67.20;;;;;;5074167;28;20067;-76
2021/07/28 06:10:14;;;;;;;9.07;3.95;;;23.40;67.00;;;;;;5073504;28;20029;-75
2021/07/28 06:12:40;;;;;;;20.00;4.15;;;23.40;66.50;;;;;;5073509;28;20081;-74
2021/07/28 06:15:06;;;;;;;12.85;4.18;;;23.40;66.30;;;;;;5073513;28;20024;-75
2021/07/28 06:17:32;;;;;;;10.55;4.10;;;23.50;66.80;;;;;;5073689;28;20028;-75
2021/07/28 06:19:57;;;;;;;10.95;4.47;;;23.50;67.00;;;;;;5073496;28;20047;-74
2021/07/28 06:22:23;;;;;;;16.20;4.57;;;23.50;67.10;;;;;;5073328;28;20021;-75
2021/07/28 06:24:50;;;;;;;9.27;4.15;;;23.50;67.30;;;;;;5073339;28;20081;-75
2021/07/28 06:27:17;;;;;;;11.27;4.50;;;23.50;67.10;;;;;;5073243;28;20032;-73
2021/07/28 06:29:42;;;;;;;11.55;4.80;;;23.60;67.00;;;;;;5072597;28;20024;-74
2021/07/28 06:32:08;;;;;;;11.38;4.68;;;23.60;66.70;;;;;;5072931;28;20449;-75
2021/07/28 06:34:34;;;;;;;11.27;4.55;;;23.70;66.40;;;;;;5072011;28;20052;-75
2021/07/28 06:36:59;;;;;;;10.27;4.65;;;23.70;66.40;;;;;;5072542;28;20538;-75
2021/07/28 06:39:26;;;;;;;16.25;4.82;;;23.80;66.20;;;;;;5072371;28;20028;-75
2021/07/28 06:41:52;;;;;;;10.82;4.18;;;23.80;66.00;;;;;;5072187;28;20035;-75
2021/07/28 06:44:18;;;;;;;11.80;4.35;;;23.90;65.90;;;;;;5073909;28;20388;-76
2021/07/28 06:46:43;;;;;;;10.60;4.40;;;23.90;65.40;;;;;;5073434;28;20032;-76
2021/07/28 06:49:09;;;;;;;8.25;4.10;;;24.00;65.10;;;;;;5073316;28;20439;-76
2021/07/28 06:51:35;;;;;;;13.40;4.22;;;24.00;64.20;;;;;;5073199;28;20021;-75
2021/07/28 06:54:02;;;;;;;12.57;4.10;;;24.00;64.70;;;;;;5073222;28;20052;-75
2021/07/28 06:56:28;;;;;;;12.15;4.25;;;24.20;64.80;;;;;;5073381;28;20354;-75
2021/07/28 06:58:54;;;;;;;10.27;4.15;;;24.20;64.60;;;;;;5073325;28;20024;-75
2021/07/28 07:01:20;;;;;;;16.70;4.32;;;24.30;64.50;;;;;;5073035;28;20078;-75
2021/07/28 07:03:46;;;;;;;13.75;5.50;;;24.30;63.80;;;;;;5073027;28;20358;-75
2021/07/28 07:06:11;;;;;;;11.02;4.68;;;24.30;63.80;;;;;;5073144;28;20020;-75
2021/07/28 07:08:37;;;;;;;11.38;4.65;;;24.40;63.70;;;;;;5073196;28;20024;-75
2021/07/28 07:11:03;;;;;;;12.70;4.78;;;24.40;63.60;;;;;;5073189;28;20027;-75
2021/07/28 07:13:28;;;;;;;11.77;4.43;;;24.50;63.60;;;;;;5072955;28;20646;-76
2021/07/28 07:15:54;;;;;;;10.70;4.63;;;24.50;63.40;;;;;;5073191;28;20016;-75
2021/07/28 07:18:20;;;;;;;14.05;4.50;;;24.50;63.40;;;;;;5073132;28;20070;-76
2021/07/28 07:20:46;;;;;;;11.82;4.13;;;24.60;63.30;;;;;;5073119;28;20036;-75
2021/07/28 07:23:12;;;;;;;9.20;4.38;;;24.60;63.20;;;;;;5071648;28;20024;-75
2021/07/28 07:25:38;;;;;;;18.08;4.60;;;24.60;62.90;;;;;;5072482;28;20086;-76
2021/07/28 07:28:04;;;;;;;10.73;4.75;;;24.70;63.10;;;;;;5072920;28;20086;-76
2021/07/28 07:30:30;;;;;;;17.08;4.97;;;24.80;63.00;;;;;;5072900;28;20104;-76
2021/07/28 07:33:41;;;;;;;9.93;4.65;;;24.80;62.90;;;;;;5072731;28;20111;-76
2021/07/28 07:35:41;;;;;;;15.32;4.93;;;24.90;62.80;;;;;;5065254;28;20119;-75
2021/07/28 07:38:07;;;;;;;11.38;5.05;;;25.00;63.10;;;;;;5072916;28;20100;-76
2021/07/28 07:40:33;;;;;;;15.73;5.50;;;25.00;62.60;;;;;;5072787;28;20040;-75
2021/07/28 07:42:59;;;;;;;11.23;4.45;;;25.10;62.50;;;;;;5072806;28;20070;-75
2021/07/28 07:45:24;;;;;;;10.35;5.00;;;25.10;62.60;;;;;;5072750;28;20029;-75
2021/07/28 07:47:50;;;;;;;11.85;4.82;;;25.20;62.10;;;;;;5076438;28;20021;-75
2021/07/28 07:50:16;;;;;;;14.90;4.88;;;25.20;61.50;;;;;;5076607;28;20046;-76
2021/07/28 07:52:42;;;;;;;19.33;5.60;;;25.20;61.50;;;;;;5076542;28;20028;-76
2021/07/28 07:55:08;;;;;;;9.23;4.40;;;25.20;61.50;;;;;;5076645;28;20039;-75
2021/07/28 07:57:33;;;;;;;10.45;4.65;;;25.30;61.60;;;;;;5076319;28;20028;-75
2021/07/28 07:59:59;;;;;;;11.90;4.63;;;25.40;61.80;;;;;;5076398;28;20115;-75
2021/07/28 08:02:25;;;;;;;10.40;4.50;;;25.50;61.60;;;;;;5076291;28;20481;-76
2021/07/28 08:04:50;;;;;;;17.20;5.70;;;25.50;61.90;;;;;;5076423;28;20481;-75
2021/07/28 08:07:16;;;;;;;14.68;5.85;;;25.60;62.10;;;;;;5076507;28;20024;-76
2021/07/28 08:09:42;;;;;;;16.02;5.90;;;25.60;61.20;;;;;;5076261;28;20029;-75
2021/07/28 08:12:08;;;;;;;17.08;5.10;;;25.70;61.00;;;;;;5076003;28;20016;-75
2021/07/28 08:14:33;;;;;;;13.38;5.60;;;25.80;61.10;;;;;;5074729;28;20169;-76
2021/07/28 08:17:02;;;;;;;9.00;5.68;;;25.80;61.40;;;;;;5076148;28;20023;-75
2021/07/28 08:19:28;;;;;;;17.25;5.25;;;25.90;60.90;;;;;;5076052;28;20530;-76
2021/07/28 08:21:53;;;;;;;18.80;5.80;;;25.90;60.40;;;;;;5076210;28;20028;-76
2021/07/28 08:24:19;;;;;;;13.85;5.80;;;25.90;60.30;;;;;;5076436;28;20039;-75
2021/07/28 08:26:45;;;;;;;15.05;5.82;;;26.00;59.70;;;;;;5075684;28;20075;-76
2021/07/28 08:29:11;;;;;;;12.85;5.45;;;26.00;59.60;;;;;;5075740;28;20028;-75
2021/07/28 08:31:37;;;;;;;14.55;5.28;;;26.10;59.70;;;;;;5075646;28;20021;-75
2021/07/28 08:34:02;;;;;;;14.02;6.55;;;26.10;59.50;;;;;;5075759;28;20430;-75
2021/07/28 08:36:28;;;;;;;16.27;5.53;;;26.20;59.40;;;;;;5075799;28;20385;-75
2021/07/28 08:38:54;;;;;;;16.88;5.78;;;26.20;59.70;;;;;;5075776;28;20020;-76
2021/07/28 08:41:22;;;;;;;18.65;5.72;;;26.40;60.10;;;;;;5075551;28;20067;-75
2021/07/28 08:43:53;;;;;;;13.32;5.63;;;26.50;60.10;;;;;;5075392;28;20024;-76
2021/07/28 08:46:20;;;;;;;13.73;5.35;;;26.50;59.50;;;;;;5075364;28;20029;-76
2021/07/28 08:48:46;;;;;;;17.42;5.88;;;26.70;59.10;;;;;;5075528;28;20024;-75
2021/07/28 08:51:12;;;;;;;16.48;5.85;;;26.70;58.60;;;;;;5075634;28;20468;-75
2021/07/28 08:53:38;;;;;;;13.13;5.95;;;26.70;58.40;;;;;;5075537;28;20093;-77
2021/07/28 08:56:05;;;;;;;11.50;5.35;;;26.80;58.60;;;;;;5075236;28;20050;-75
2021/07/28 08:58:31;;;;;;;15.13;6.55;;;26.90;58.50;;;;;;5075169;28;20056;-75
2021/07/28 09:00:57;;;;;;;12.13;5.65;;;26.90;59.10;;;;;;5075060;28;20032;-75
2021/07/28 09:03:23;;;;;;;18.98;5.93;;;27.00;58.40;;;;;;5075455;28;20104;-74
2021/07/28 09:05:51;;;;;;;12.07;6.05;;;27.00;58.20;;;;;;5075487;28;20028;-76
2021/07/28 09:08:22;;;;;;;21.70;6.15;;;27.00;58.10;;;;;;5075352;28;20534;-77
2021/07/28 09:11:03;;;;;;;13.67;5.83;;;27.00;58.30;;;;;;5074890;28;20040;-76
2021/07/28 09:13:37;;;;;;;17.83;6.40;;;27.10;58.20;;;;;;5075274;28;20047;-76
2021/07/28 09:16:11;;;;;;;20.75;6.88;;;27.10;58.30;;;;;;5075122;28;20491;-76
2021/07/28 09:18:56;;;;;;;13.98;6.85;;;27.20;58.20;;;;;;5075024;28;20021;-76
2021/07/28 09:21:28;;;;;;;20.52;6.57;;;27.30;57.40;;;;;;5074696;28;20075;-76
2021/07/28 09:24:15;;;;;;;10.95;5.90;;;27.30;58.00;;;;;;5075047;28;20090;-76
2021/07/28 09:26:48;;;;;;;16.30;6.55;;;27.40;57.80;;;;;;5075012;28;20037;-76
2021/07/28 09:29:17;;;;;;;13.95;6.15;;;27.50;57.50;;;;;;5074637;28;20103;-76
2021/07/28 09:31:51;;;;;;;18.27;6.50;;;27.50;57.50;;;;;;5074602;28;20024;-76
2021/07/28 09:34:21;;;;;;;16.73;6.50;;;27.60;57.50;;;;;;5074846;28;20025;-76
2021/07/28 09:36:49;;;;;;;15.85;6.53;;;27.70;57.70;;;;;;5074881;28;20103;-76
2021/07/28 09:39:25;;;;;;;19.30;6.47;;;27.80;57.90;;;;;;5074629;28;20020;-76
2021/07/28 09:41:53;;;;;;;11.90;5.47;;;27.90;57.90;;;;;;5074649;28;20099;-76
2021/07/28 09:44:29;;;;;;;16.33;6.90;;;28.00;57.60;;;;;;5074668;28;20104;-76
2021/07/28 09:47:04;;;;;;;11.30;6.40;;;28.10;57.90;;;;;;5074926;28;20029;-76
2021/07/28 09:49:30;;;;;;;22.83;7.05;;;28.20;57.40;;;;;;5074141;28;20376;-76
2021/07/28 09:51:56;;;;;;;17.77;6.28;;;28.30;57.50;;;;;;5074287;28;20039;-76
2021/07/28 09:54:27;;;;;;;12.55;6.20;;;28.40;57.70;;;;;;5074464;28;20020;-76
2021/07/28 09:56:57;;;;;;;17.52;6.53;;;28.70;69.00;;;;;;5074481;28;20035;-76
2021/07/28 09:59:23;;;;;;;20.70;6.68;;;28.60;57.00;;;;;;5072793;28;20063;-75
2021/07/28 10:01:49;;;;;;;12.57;6.50;;;28.60;58.10;;;;;;5074120;28;20477;-76
2021/07/28 10:04:19;;;;;;;15.65;6.47;;;28.60;59.30;;;;;;5074035;28;20025;-76
2021/07/28 10:06:48;;;;;;;14.00;6.10;;;28.60;60.00;;;;;;5074210;28;20033;-76
2021/07/28 10:09:20;;;;;;;16.15;6.68;;;28.60;59.90;;;;;;5074093;28;20052;-75
2021/07/28 10:11:52;;;;;;;15.85;5.82;;;28.80;67.00;;;;;;5074187;28;20025;-76
2021/07/28 10:14:20;;;;;;;16.55;7.47;;;28.80;66.50;;;;;;5073776;28;20356;-76
2021/07/28 10:16:47;;;;;;;15.57;6.18;;;28.70;67.50;;;;;;5073770;28;20071;-76
2021/07/28 10:19:15;;;;;;;16.75;6.13;;;28.70;60.70;;;;;;5073832;28;20020;-75
2021/07/28 10:21:41;;;;;;;18.42;6.50;;;28.70;60.40;;;;;;5073733;28;20050;-75
2021/07/28 10:24:09;;;;;;;15.77;6.00;;;28.70;60.10;;;;;;5073816;28;20020;-76
2021/07/28 10:26:45;;;;;;;15.38;5.93;;;28.60;60.00;;;;;;5073438;28;20048;-76
2021/07/28 10:29:14;;;;;;;18.27;6.47;;;28.70;62.60;;;;;;5073655;28;20109;-76
2021/07/28 10:31:48;;;;;;;13.05;5.93;;;28.80;71.50;;;;;;5073478;28;20064;-76
2021/07/28 10:34:36;;;;;;;15.88;6.47;;;28.80;59.10;;;;;;5073585;28;20025;-76
2021/07/28 10:37:07;;;;;;;14.02;5.85;;;28.80;59.70;;;;;;5073755;28;20100;-77
2021/07/28 10:39:46;;;;;;;13.45;6.75;;;28.90;59.30;;;;;;5073373;28;20074;-76
2021/07/28 10:42:39;;;;;;;15.48;5.80;;;28.90;59.30;;;;;;5073510;28;20028;-76
2021/07/28 10:45:06;;;;;;;17.05;6.07;;;29.00;59.10;;;;;;5073609;28;20021;-76
2021/07/28 10:47:45;;;;;;;19.25;6.50;;;29.00;58.70;;;;;;5073309;28;20025;-76
2021/07/28 10:50:26;;;;;;;14.18;5.95;;;29.10;58.10;;;;;;5073354;28;20024;-76
2021/07/28 10:52:51;;;;;;;15.77;6.28;;;29.10;58.00;;;;;;5073385;28;20454;-75
2021/07/28 10:55:19;;;;;;;17.33;5.78;;;29.10;56.30;;;;;;5073409;28;20020;-76
2021/07/28 10:57:54;;;;;;;21.05;6.57;;;29.20;56.30;;;;;;5073209;28;20045;-76
2021/07/28 11:00:35;;;;;;;15.45;6.40;;;29.20;57.20;;;;;;5073128;28;20037;-76
2021/07/28 11:03:07;;;;;;;15.73;5.85;;;29.30;58.10;;;;;;5072937;28;20542;-76
2021/07/28 11:05:53;;;;;;;12.50;5.78;;;29.40;58.30;;;;;;5073430;28;20055;-76
2021/07/28 11:08:20;;;;;;;16.35;6.35;;;29.40;58.10;;;;;;5073268;28;20556;-77
2021/07/28 11:10:55;;;;;;;12.25;5.72;;;29.50;56.60;;;;;;5073221;28;20465;-76
2021/07/28 11:13:32;;;;;;;13.82;6.10;;;29.60;57.20;;;;;;5073050;28;20044;-75
2021/07/28 11:16:06;;;;;;;15.48;5.95;;;29.70;57.80;;;;;;5072868;28;20028;-76
2021/07/28 11:18:40;;;;;;;13.68;6.72;;;29.70;58.30;;;;;;5072908;28;20074;-76
2021/07/28 11:21:17;;;;;;;18.85;6.20;;;29.80;58.10;;;;;;5073823;28;20082;-76
2021/07/28 11:23:55;;;;;;;12.48;5.95;;;29.90;54.60;;;;;;5077185;28;20031;-77
2021/07/28 11:26:24;;;;;;;12.93;5.75;;;29.90;54.90;;;;;;5077160;28;20044;-76
2021/07/28 11:28:53;;;;;;;11.10;5.97;;;29.90;55.40;;;;;;5077007;28;20414;-76
2021/07/28 11:31:27;;;;;;;17.10;5.70;;;29.90;55.00;;;;;;5077142;28;20021;-76
2021/07/28 11:34:11;;;;;;;16.08;5.63;;;29.90;53.80;;;;;;5077140;28;20086;-76
2021/07/28 11:36:38;;;;;;;13.55;5.45;;;30.00;53.60;;;;;;5075643;28;20113;-76
2021/07/28 11:39:08;;;;;;;15.45;5.93;;;30.00;53.80;;;;;;5076999;28;20024;-76
2021/07/28 11:41:34;;;;;;;13.23;5.70;;;30.00;53.80;;;;;;5076890;28;20060;-76
2021/07/28 11:44:00;;;;;;;12.93;5.53;;;30.10;53.40;;;;;;5076812;28;20474;-77
2021/07/28 11:46:26;;;;;;;13.43;6.15;;;30.10;54.10;;;;;;5076912;28;20028;-76
2021/07/28 11:48:59;;;;;;;16.67;5.63;;;30.10;54.00;;;;;;5076704;28;20047;-77
2021/07/28 11:51:32;;;;;;;13.43;5.35;;;30.20;53.80;;;;;;5075450;28;20025;-77
2021/07/28 11:54:11;;;;;;;13.05;6.07;;;30.30;54.00;;;;;;5075143;28;20484;-77
2021/07/28 11:56:38;;;;;;;17.75;6.63;;;30.30;54.70;;;;;;5076422;28;20037;-78
2021/07/28 11:59:04;;;;;;;12.32;5.90;;;30.40;55.20;;;;;;5076420;28;20488;-77
2021/07/28 12:01:31;;;;;;;13.40;5.85;;;30.40;54.80;;;;;;5076365;28;20074;-76
2021/07/28 12:04:09;;;;;;;17.38;6.72;;;30.40;54.80;;;;;;5076488;28;20086;-76
2021/07/28 12:06:39;;;;;;;17.50;5.55;;;30.30;53.60;;;;;;5076530;28;20024;-74
2021/07/28 12:09:11;;;;;;;16.67;5.78;;;30.30;52.40;;;;;;5075555;28;20054;-77
2021/07/28 12:11:46;;;;;;;16.17;6.03;;;30.30;52.70;;;;;;5076523;28;20033;-75
2021/07/28 12:14:21;;;;;;;14.85;5.60;;;30.30;52.60;;;;;;5076035;28;20023;-76
2021/07/28 12:16:47;;;;;;;19.50;5.20;;;30.20;52.70;;;;;;5076216;28;20063;-77
2021/07/28 12:19:13;;;;;;;20.08;6.00;;;30.20;51.70;;;;;;5076008;28;20025;-75
2021/07/28 12:22:00;;;;;;;16.65;5.10;;;30.20;51.50;;;;;;5076291;28;20448;-77
2021/07/28 12:24:38;;;;;;;19.05;5.82;;;30.20;51.20;;;;;;5075811;28;20094;-76
2021/07/28 12:27:25;;;;;;;19.05;5.57;;;30.20;50.90;;;;;;5075662;28;20048;-76
2021/07/28 12:30:03;;;;;;;13.13;5.30;;;30.20;51.30;;;;;;5076181;28;20119;-77
2021/07/28 12:32:39;;;;;;;13.98;5.60;;;30.30;49.50;;;;;;5075500;28;20492;-76
2021/07/28 12:35:31;;;;;;;14.68;5.18;;;30.40;49.70;;;;;;5075896;28;20472;-76
2021/07/28 12:38:09;;;;;;;18.90;5.28;;;30.40;48.50;;;;;;5057055;28;20093;-77
2021/07/28 12:40:36;;;;;;;21.48;5.13;;;30.40;47.60;;;;;;5075470;28;20032;-76
2021/07/28 12:43:05;;;;;;;16.88;4.90;;;30.40;48.70;;;;;;5075732;28;20435;-76
2021/07/28 12:45:31;;;;;;;20.23;5.03;;;30.40;49.30;;;;;;5075602;28;20372;-77
2021/07/28 12:47:57;;;;;;;18.70;5.20;;;30.40;49.10;;;;;;5075737;28;20095;-77
2021/07/28 12:50:22;;;;;;;19.63;5.97;;;30.50;48.70;;;;;;5075243;28;20059;-77
2021/07/28 12:52:48;;;;;;;16.50;6.10;;;30.50;49.50;;;;;;5075539;28;20083;-77